Terminal Aerodrome Forecast
Issued by NWS Paducah, KY

Home | Current Version | Previous Version | Text Only | Print | Product List | Glossary On
Versions: 1 2 3 4 5 6 7 8 9 10 11 12 13 14 15
000
FTUS43 KPAH 301720
TAFPAH
TAF
KPAH 301720Z 3018/3118 18006KT P6SM SCT050 BKN100
     FM310000 VRB03KT P6SM SCT060 BKN150
      TEMPO 3109/3112 5SM BR
     FM311400 18005KT P6SM SCT040 BKN100=

USA.gov is the U.S. government's official web portal to all federal, state and local government web resources and services.